HEAX/ALY METAR and TAF weather

Enter ICAO airport designator
Station Type Date Time Source
HEAX METAR 2018/04/23 11:00 UTC NOAA

HEAX 231100Z 33012KT CAVOK 23/10 Q1017 NOSIG


Station Type Date Time Source
HEAX Decoded METAR 2018/04/23 11:00 UTC NOAA

Alexandria / Nouzha, Egypt (HEAX) 31-12N 029-57E 7M
Apr 23, 2018 - 07:00 AM EDT / 2018.04.23 1100 UTC
Wind: from the NNW (330 degrees) at 14 MPH (12 KT):0
Visibility: greater than 7 mile(s):0
Temperature: 73 F (23 C)
Dew Point: 50 F (10 C)
Relative Humidity: 43%
Pressure (altimeter): 30.03 in. Hg (1017 hPa)
ob: HEAX 231100Z 33012KT CAVOK 23/10 Q1017 NOSIG
cycle: 11

Station Type Date Time Source
HEAX TAF 2018/04/23 12:51 UTC NOAA

TAF HEAX 231100Z 2312/2418 34010KT 9999 FEW020


Example: see airport list